createdAt,value
2022-08-17T00:02:25.265Z,20.27
2022-08-17T00:04:55.093Z,17.92
2022-08-17T00:07:22.312Z,20.95
2022-08-17T00:09:49.157Z,20.90
2022-08-17T00:12:41.839Z,18.45
2022-08-17T00:15:05.248Z,20.67
2022-08-17T00:17:31.776Z,20.88
2022-08-17T00:19:58.405Z,22.90
2022-08-17T00:22:34.963Z,19.00
2022-08-17T00:25:07.563Z,20.40
2022-08-17T00:27:35.308Z,21.73
2022-08-17T00:30:01.974Z,23.55
2022-08-17T00:33:12.527Z,24.80
2022-08-17T00:35:17.715Z,20.25
2022-08-17T00:37:44.453Z,20.30
2022-08-17T00:40:14.423Z,18.77
2022-08-17T00:42:42.123Z,24.30
2022-08-17T00:45:11.736Z,20.90
2022-08-17T00:47:38.765Z,19.75
2022-08-17T00:50:09.447Z,23.58
2022-08-17T00:52:40.096Z,18.37
2022-08-17T00:55:09.160Z,18.85
2022-08-17T00:57:42.216Z,20.05
2022-08-17T01:00:18.817Z,20.25
2022-08-17T01:02:48.079Z,17.60
2022-08-17T01:05:19.673Z,19.57
2022-08-17T01:07:49.480Z,18.05
2022-08-17T01:10:59.040Z,17.67
2022-08-17T01:13:05.448Z,15.68
2022-08-17T01:15:36.344Z,16.00
2022-08-17T01:18:05.452Z,16.47
2022-08-17T01:20:48.304Z,15.93
2022-08-17T01:23:20.560Z,15.48
2022-08-17T01:25:58.162Z,15.23
2022-08-17T01:28:52.526Z,15.00
2022-08-17T01:31:16.698Z,15.87
2022-08-17T01:33:43.504Z,15.55
2022-08-17T01:36:10.518Z,16.38
2022-08-17T01:38:38.294Z,15.20
2022-08-17T01:41:12.518Z,15.25
2022-08-17T01:43:49.204Z,14.87
2022-08-17T01:46:21.919Z,15.52
2022-08-17T01:48:48.907Z,17.88
2022-08-17T01:51:16.025Z,16.15
2022-08-17T01:53:47.480Z,16.25
2022-08-17T01:56:17.992Z,18.73
2022-08-17T01:58:44.685Z,18.90
2022-08-17T02:01:12.479Z,17.52
2022-08-17T02:03:39.151Z,22.50
2022-08-17T02:06:12.000Z,17.52
2022-08-17T02:09:01.932Z,18.13
2022-08-17T02:11:32.304Z,18.13
2022-08-17T02:14:02.982Z,20.58
2022-08-17T02:16:37.744Z,17.85
2022-08-17T02:19:12.512Z,23.27
2022-08-17T02:21:41.561Z,20.30
2022-08-17T02:24:13.316Z,15.85
2022-08-17T02:26:39.883Z,13.85
2022-08-17T02:29:07.490Z,16.77
2022-08-17T02:31:35.504Z,17.15
2022-08-17T02:34:04.723Z,14.53
2022-08-17T02:36:34.504Z,16.75
2022-08-17T02:39:03.430Z,12.27
2022-08-17T02:41:30.460Z,14.68
2022-08-17T02:43:57.184Z,15.82
2022-08-17T02:46:23.814Z,15.23
2022-08-17T02:48:50.346Z,15.98
2022-08-17T02:51:17.188Z,15.57
2022-08-17T02:53:44.009Z,15.77
2022-08-17T02:56:10.738Z,11.27
2022-08-17T02:58:37.308Z,14.93
2022-08-17T03:01:06.013Z,15.68
2022-08-17T03:03:33.074Z,15.13
2022-08-17T03:05:59.964Z,14.13
2022-08-17T03:08:27.231Z,16.88
2022-08-17T03:10:54.083Z,18.20
2022-08-17T03:13:20.911Z,18.33
2022-08-17T03:15:48.783Z,14.82
2022-08-17T03:18:25.558Z,13.98
2022-08-17T03:21:00.813Z,15.30
2022-08-17T03:23:29.734Z,16.47
2022-08-17T03:25:57.273Z,14.23
2022-08-17T03:28:24.770Z,13.02
2022-08-17T03:30:52.260Z,13.82
2022-08-17T03:33:19.938Z,12.68
2022-08-17T03:35:47.194Z,12.87
2022-08-17T03:38:17.404Z,14.73
2022-08-17T03:40:56.569Z,14.27
2022-08-17T03:43:30.175Z,10.85
2022-08-17T03:46:28.233Z,12.13
2022-08-17T03:49:20.502Z,14.97
2022-08-17T03:52:05.720Z,12.77
2022-08-17T03:54:50.637Z,10.43
2022-08-17T03:57:17.963Z,10.77
2022-08-17T03:59:45.316Z,10.50
2022-08-17T04:02:18.948Z,10.80
2022-08-17T04:04:45.560Z,9.55
2022-08-17T04:07:12.544Z,9.02
2022-08-17T04:09:39.032Z,10.32
2022-08-17T04:12:06.047Z,10.30
2022-08-17T04:14:51.712Z,8.83
2022-08-17T04:17:20.491Z,8.40
2022-08-17T04:19:47.127Z,7.60
2022-08-17T04:22:31.159Z,10.30
2022-08-17T04:25:01.515Z,8.30
2022-08-17T04:27:28.028Z,9.30
2022-08-17T04:29:55.980Z,9.07
2022-08-17T04:33:00.490Z,9.35
2022-08-17T04:35:09.815Z,9.80
2022-08-17T04:37:36.386Z,8.45
2022-08-17T04:40:22.148Z,13.17
2022-08-17T04:43:07.287Z,11.40
2022-08-17T04:45:38.119Z,12.98
2022-08-17T04:48:04.817Z,11.13
2022-08-17T04:50:31.316Z,10.55
2022-08-17T04:52:58.121Z,12.47
2022-08-17T04:55:24.992Z,11.50
2022-08-17T04:57:51.578Z,16.30
2022-08-17T05:00:18.884Z,15.95
2022-08-17T05:02:49.930Z,15.55
2022-08-17T05:05:24.861Z,14.97
2022-08-17T05:07:54.412Z,14.75
2022-08-17T05:10:23.206Z,15.40
2022-08-17T05:13:05.230Z,12.35
2022-08-17T05:15:33.191Z,11.07
2022-08-17T05:18:03.260Z,11.95
2022-08-17T05:20:30.170Z,14.13
2022-08-17T05:23:00.334Z,13.85
2022-08-17T05:25:31.631Z,11.90
2022-08-17T05:28:02.209Z,11.48
2022-08-17T05:30:28.978Z,12.37
2022-08-17T05:33:13.636Z,13.27
2022-08-17T05:35:44.402Z,11.25
2022-08-17T05:38:11.414Z,10.70
2022-08-17T05:40:38.350Z,9.65
2022-08-17T05:43:08.365Z,9.47
2022-08-17T05:45:55.809Z,9.45
2022-08-17T05:48:35.506Z,6.95
2022-08-17T05:51:28.321Z,6.53
2022-08-17T05:54:26.068Z,5.60
2022-08-17T05:57:06.299Z,6.05
2022-08-17T05:59:44.972Z,6.15
2022-08-17T06:02:27.086Z,5.65
2022-08-17T06:04:56.224Z,5.30
2022-08-17T06:07:49.793Z,6.13
2022-08-17T06:10:43.925Z,5.67
2022-08-17T06:13:28.842Z,5.55
2022-08-17T06:15:56.100Z,7.45
2022-08-17T06:18:28.616Z,6.40
2022-08-17T06:21:00.417Z,7.47
2022-08-17T06:23:32.440Z,7.00
2022-08-17T06:26:06.031Z,6.78
2022-08-17T06:28:51.697Z,7.00
2022-08-17T06:31:29.213Z,8.52
2022-08-17T06:33:58.214Z,6.95
2022-08-17T06:36:42.078Z,7.17
2022-08-17T06:39:27.121Z,6.60
2022-08-17T06:41:59.469Z,7.07
2022-08-17T06:44:42.258Z,6.97
2022-08-17T06:47:40.846Z,7.80
2022-08-17T06:50:27.410Z,7.47
2022-08-17T06:53:20.936Z,7.75
2022-08-17T06:56:03.948Z,7.93
2022-08-17T06:58:33.218Z,8.65
2022-08-17T07:01:13.013Z,9.65
2022-08-17T07:03:45.524Z,10.10
2022-08-17T07:06:18.487Z,9.15
2022-08-17T07:09:06.293Z,10.13
2022-08-17T07:11:48.764Z,11.60
2022-08-17T07:14:53.498Z,9.25
2022-08-17T07:17:22.402Z,11.00
2022-08-17T07:20:16.206Z,7.72
2022-08-17T07:23:08.662Z,9.48
2022-08-17T07:25:36.499Z,10.85
2022-08-17T07:28:07.097Z,11.48
2022-08-17T07:30:49.011Z,11.37
2022-08-17T07:33:23.783Z,10.32
2022-08-17T07:35:51.105Z,12.73
2022-08-17T07:38:28.507Z,12.82
2022-08-17T07:40:57.555Z,16.15
2022-08-17T07:43:29.607Z,13.93
2022-08-17T07:46:35.449Z,14.27
2022-08-17T07:49:06.713Z,11.07
2022-08-17T07:51:53.480Z,17.25
2022-08-17T07:54:31.650Z,15.38
2022-08-17T07:57:13.487Z,13.23
2022-08-17T07:59:43.403Z,14.10
2022-08-17T08:02:33.741Z,13.30
2022-08-17T08:05:46.654Z,11.57
2022-08-17T08:08:30.846Z,12.77
2022-08-17T08:11:11.357Z,16.00
2022-08-17T08:13:47.209Z,14.45
2022-08-17T08:16:16.892Z,13.38
2022-08-17T08:18:55.827Z,13.57
2022-08-17T08:21:53.601Z,15.73
2022-08-17T08:24:43.761Z,11.82
2022-08-17T08:27:37.628Z,11.05
2022-08-17T08:30:10.747Z,8.13
2022-08-17T08:32:57.559Z,8.13
2022-08-17T08:35:50.193Z,8.00
2022-08-17T08:38:26.760Z,7.27
2022-08-17T08:41:37.014Z,7.05
2022-08-17T08:45:00.821Z,8.20
2022-08-17T08:47:35.513Z,7.53
2022-08-17T08:50:08.177Z,7.20
2022-08-17T08:53:21.338Z,6.97
2022-08-17T08:55:51.811Z,6.38
2022-08-17T08:58:44.678Z,6.68
2022-08-17T09:01:40.245Z,7.00
2022-08-17T09:04:27.451Z,7.85
2022-08-17T09:07:34.882Z,7.87
2022-08-17T09:10:15.184Z,6.45
2022-08-17T09:12:57.112Z,7.35
2022-08-17T09:15:37.977Z,6.70
2022-08-17T09:19:01.661Z,6.28
2022-08-17T09:21:10.655Z,8.57
2022-08-17T09:24:15.658Z,6.97
2022-08-17T09:27:03.105Z,6.90
2022-08-17T09:29:35.096Z,6.95
2022-08-17T09:32:09.672Z,7.50
2022-08-17T09:37:56.938Z,7.95
2022-08-17T09:40:37.709Z,8.32
2022-08-17T09:43:30.725Z,13.82
2022-08-17T09:46:16.825Z,8.18
2022-08-17T09:48:57.667Z,9.10
2022-08-17T09:51:36.179Z,9.27
2022-08-17T09:54:36.957Z,9.18
2022-08-17T09:57:32.382Z,8.73
2022-08-17T10:00:17.992Z,8.52
2022-08-17T10:03:18.234Z,7.07
2022-08-17T10:05:57.723Z,11.15
2022-08-17T10:08:48.205Z,9.65
2022-08-17T10:11:52.176Z,9.73
2022-08-17T10:14:44.110Z,10.25
2022-08-17T10:17:24.476Z,9.13
2022-08-17T10:20:19.793Z,10.00
2022-08-17T10:23:24.313Z,8.27
2022-08-17T10:26:20.589Z,8.65
2022-08-17T10:28:59.106Z,10.10
2022-08-17T10:31:36.254Z,11.10
2022-08-17T10:34:03.079Z,7.63
2022-08-17T10:36:46.214Z,7.68
2022-08-17T10:39:26.769Z,7.03
2022-08-17T10:42:00.834Z,9.02
2022-08-17T10:44:48.482Z,8.63
2022-08-17T10:47:17.631Z,10.57
2022-08-17T10:49:53.893Z,9.02
2022-08-17T10:52:20.929Z,8.70
2022-08-17T10:54:57.922Z,8.93
2022-08-17T10:57:34.323Z,8.43
2022-08-17T11:00:42.843Z,8.43
2022-08-17T11:03:21.127Z,9.88
2022-08-17T11:05:55.749Z,10.40
2022-08-17T11:08:40.711Z,9.65
2022-08-17T11:11:35.882Z,13.07
2022-08-17T11:14:33.010Z,11.00
2022-08-17T11:17:24.091Z,10.15
2022-08-17T11:20:04.795Z,11.93
2022-08-17T11:22:49.766Z,13.27
2022-08-17T11:25:20.592Z,11.60
2022-08-17T11:27:53.950Z,10.57
2022-08-17T11:30:50.908Z,12.27
2022-08-17T11:33:29.662Z,12.48
2022-08-17T11:36:29.445Z,14.60
2022-08-17T11:39:25.094Z,15.10
2022-08-17T11:42:08.863Z,16.00
2022-08-17T11:44:52.224Z,18.70
2022-08-17T11:48:16.042Z,16.33
2022-08-17T11:51:06.148Z,15.98
2022-08-17T11:53:38.809Z,15.17
2022-08-17T11:56:29.007Z,14.68
2022-08-17T11:58:56.160Z,18.88
2022-08-17T12:01:56.605Z,17.80
2022-08-17T12:04:34.185Z,16.42
2022-08-17T12:07:10.584Z,16.30
2022-08-17T12:09:45.578Z,17.45
2022-08-17T12:12:29.750Z,17.83
2022-08-17T12:15:10.146Z,14.82
2022-08-17T12:17:41.162Z,20.08
2022-08-17T12:20:15.589Z,18.23
2022-08-17T12:23:01.169Z,18.15
2022-08-17T12:25:37.950Z,20.30
2022-08-17T12:28:20.052Z,18.05
2022-08-17T12:30:52.164Z,18.35
2022-08-17T12:33:24.982Z,19.27
2022-08-17T12:36:03.251Z,19.55
2022-08-17T12:38:35.017Z,20.42
2022-08-17T12:41:22.494Z,18.75
2022-08-17T12:44:26.110Z,23.35
2022-08-17T12:47:18.079Z,20.50
2022-08-17T12:49:51.571Z,21.00
2022-08-17T12:52:33.031Z,22.23
2022-08-17T12:55:05.664Z,21.75
2022-08-17T12:57:37.995Z,18.33
2022-08-17T13:00:11.517Z,18.77
2022-08-17T13:02:49.310Z,22.17
2022-08-17T13:05:26.165Z,22.90
2022-08-17T13:07:55.861Z,21.20
2022-08-17T13:10:33.093Z,19.02
2022-08-17T13:13:06.040Z,20.70
2022-08-17T13:15:45.091Z,21.02
2022-08-17T13:18:39.401Z,18.77
2022-08-17T13:21:12.523Z,21.75
2022-08-17T13:23:39.247Z,19.77
2022-08-17T13:26:16.464Z,25.13
2022-08-17T13:28:50.122Z,24.33
2022-08-17T13:31:28.480Z,23.35
2022-08-17T13:34:26.929Z,21.00
2022-08-17T13:37:17.814Z,24.77
2022-08-17T13:39:48.437Z,25.37
2022-08-17T13:42:53.576Z,23.92
2022-08-17T13:45:36.156Z,20.92
2022-08-17T13:48:13.761Z,26.30
2022-08-17T13:50:46.765Z,25.38
2022-08-17T13:53:20.608Z,18.85
2022-08-17T13:55:53.002Z,23.92
2022-08-17T13:58:27.759Z,29.02
2022-08-17T14:00:56.269Z,26.48
2022-08-17T14:03:24.935Z,23.17
2022-08-17T14:05:52.991Z,24.77
2022-08-17T14:08:20.773Z,26.48
2022-08-17T14:10:57.849Z,29.17
2022-08-17T14:13:24.494Z,22.77
2022-08-17T14:15:56.364Z,22.02
2022-08-17T14:18:49.826Z,21.57
2022-08-17T14:21:10.377Z,26.90
2022-08-17T14:23:37.213Z,25.63
2022-08-17T14:26:04.280Z,24.65
2022-08-17T14:28:32.205Z,21.92
2022-08-17T14:31:00.731Z,21.93
2022-08-17T14:33:29.589Z,25.40
2022-08-17T14:35:57.714Z,26.85
2022-08-17T14:38:24.890Z,21.20
2022-08-17T14:40:51.798Z,22.00
2022-08-17T14:43:18.813Z,23.27
2022-08-17T14:45:45.551Z,23.80
2022-08-17T14:48:12.109Z,26.48
2022-08-17T14:50:42.457Z,25.45
2022-08-17T14:53:11.948Z,24.20
2022-08-17T14:55:40.015Z,24.33
2022-08-17T14:58:07.837Z,22.55
2022-08-17T15:00:34.985Z,24.95
2022-08-17T15:03:02.209Z,27.35
2022-08-17T15:05:33.514Z,22.83
2022-08-17T15:08:02.353Z,24.17
2022-08-17T15:10:29.884Z,22.85
2022-08-17T15:12:57.406Z,25.08
2022-08-17T15:15:24.319Z,22.95
2022-08-17T15:17:51.580Z,22.35
2022-08-17T15:20:21.092Z,25.97
2022-08-17T15:22:49.826Z,24.05
2022-08-17T15:25:18.042Z,24.25
2022-08-17T15:27:44.846Z,27.35
2022-08-17T15:30:12.054Z,25.05
2022-08-17T15:32:40.863Z,21.40
2022-08-17T15:35:13.119Z,32.58
2022-08-17T15:37:40.405Z,24.60
2022-08-17T15:40:08.412Z,24.25
2022-08-17T15:42:36.659Z,23.38
2022-08-17T15:45:10.413Z,18.73
2022-08-17T15:47:37.882Z,23.65
2022-08-17T15:50:06.717Z,20.23
2022-08-17T15:52:40.264Z,18.77
2022-08-17T15:55:11.215Z,19.65
2022-08-17T15:57:38.027Z,17.13
2022-08-17T16:00:07.394Z,16.52
2022-08-17T16:03:45.398Z,19.35
2022-08-17T16:05:27.147Z,17.70
2022-08-17T16:07:55.271Z,17.02
2022-08-17T16:10:22.861Z,17.70
2022-08-17T16:13:02.011Z,14.95
2022-08-17T16:15:31.058Z,16.63
2022-08-17T16:17:57.586Z,16.25
2022-08-17T16:20:24.422Z,15.27
2022-08-17T16:22:51.517Z,15.37
2022-08-17T16:25:22.113Z,14.68
2022-08-17T16:27:53.532Z,14.77
2022-08-17T16:30:23.638Z,15.35
2022-08-17T16:32:51.725Z,15.75
2022-08-17T16:35:21.288Z,16.90
2022-08-17T16:37:48.586Z,17.55
2022-08-17T16:40:16.681Z,15.40
2022-08-17T16:42:45.833Z,16.95
2022-08-17T16:45:16.729Z,15.90
2022-08-17T16:47:43.612Z,15.90
2022-08-17T16:50:14.353Z,17.08
2022-08-17T16:52:41.810Z,17.02
2022-08-17T16:55:10.561Z,17.33
2022-08-17T16:57:47.202Z,17.13
2022-08-17T17:00:17.968Z,16.07
2022-08-17T17:02:47.481Z,16.15
2022-08-17T17:05:33.036Z,16.42
2022-08-17T17:08:13.408Z,16.92
2022-08-17T17:10:44.661Z,18.75
2022-08-17T17:13:24.601Z,20.47
2022-08-17T17:15:57.603Z,23.10
2022-08-17T17:18:37.527Z,20.13
2022-08-17T17:21:06.303Z,19.38
2022-08-17T17:23:54.572Z,17.00
2022-08-17T17:26:58.967Z,21.03
2022-08-17T17:29:49.692Z,24.33
2022-08-17T17:32:31.153Z,19.63
2022-08-17T17:35:04.691Z,24.05
2022-08-17T17:37:35.182Z,20.45
2022-08-17T17:40:13.107Z,20.20
2022-08-17T17:42:42.772Z,20.55
2022-08-17T17:45:15.208Z,20.60
2022-08-17T17:47:41.736Z,22.23
2022-08-17T17:50:08.908Z,21.48
2022-08-17T17:52:47.537Z,20.97
2022-08-17T17:55:22.970Z,23.25
2022-08-17T17:58:17.213Z,20.77
2022-08-17T18:01:08.459Z,25.35
2022-08-17T18:03:40.749Z,21.48
2022-08-17T18:06:21.441Z,29.63
2022-08-17T18:09:19.470Z,20.73
2022-08-17T18:12:08.765Z,24.33
2022-08-17T18:15:04.204Z,21.15
2022-08-17T18:17:31.013Z,24.48
2022-08-17T18:19:57.526Z,22.50
2022-08-17T18:22:24.862Z,21.77
2022-08-17T18:24:56.497Z,21.17
2022-08-17T18:27:38.815Z,24.60
2022-08-17T18:30:14.411Z,23.45
2022-08-17T18:32:43.573Z,24.67
2022-08-17T18:35:10.184Z,20.85
2022-08-17T18:37:57.579Z,24.25
2022-08-17T18:40:30.211Z,23.75
2022-08-17T18:43:26.890Z,23.75
2022-08-17T18:45:56.150Z,25.30
2022-08-17T18:48:26.989Z,24.73
2022-08-17T18:51:00.393Z,18.77
2022-08-17T18:53:34.182Z,26.50
2022-08-17T18:56:20.127Z,24.75
2022-08-17T18:59:05.569Z,30.17
2022-08-17T19:02:16.004Z,26.77
2022-08-17T19:05:00.944Z,23.38
2022-08-17T19:07:33.663Z,27.15
2022-08-17T19:10:09.290Z,25.20
2022-08-17T19:13:00.885Z,21.83
2022-08-17T19:15:37.953Z,21.92
2022-08-17T19:18:22.867Z,22.75
2022-08-17T19:21:07.306Z,25.13
2022-08-17T19:23:54.094Z,25.17
2022-08-17T19:26:50.741Z,22.53
2022-08-17T19:29:25.665Z,21.63
2022-08-17T19:31:57.625Z,23.92
2022-08-17T19:34:33.454Z,24.75
2022-08-17T19:37:20.931Z,25.25
2022-08-17T19:40:24.442Z,21.87
2022-08-17T19:43:04.113Z,24.02
2022-08-17T19:45:49.245Z,26.63
2022-08-17T19:48:35.512Z,23.40
2022-08-17T19:51:09.857Z,22.73
2022-08-17T19:54:04.922Z,20.57
2022-08-17T19:57:01.559Z,22.38
2022-08-17T19:59:53.730Z,23.50
2022-08-17T20:02:47.859Z,20.48
2022-08-17T20:05:23.970Z,20.63
2022-08-17T20:07:58.067Z,21.07
2022-08-17T20:10:54.854Z,22.85
2022-08-17T20:13:33.371Z,24.30
2022-08-17T20:16:01.314Z,22.95
2022-08-17T20:18:36.916Z,20.25
2022-08-17T20:21:20.282Z,20.30
2022-08-17T20:24:04.333Z,21.25
2022-08-17T20:26:58.670Z,22.60
2022-08-17T20:30:07.260Z,24.67
2022-08-17T20:32:53.198Z,21.05
2022-08-17T20:35:36.470Z,19.83
2022-08-17T20:38:12.814Z,18.77
2022-08-17T20:40:57.433Z,19.73
2022-08-17T20:43:32.780Z,19.67
2022-08-17T20:46:02.367Z,20.02
2022-08-17T20:48:38.425Z,20.70
2022-08-17T20:51:22.561Z,19.75
2022-08-17T20:53:54.946Z,19.80
2022-08-17T20:56:43.781Z,21.17
2022-08-17T20:59:30.420Z,21.02
2022-08-17T21:02:18.534Z,20.17
2022-08-17T21:04:52.303Z,22.55
2022-08-17T21:07:29.791Z,20.08
2022-08-17T21:10:28.081Z,13.80
2022-08-17T21:13:13.510Z,19.83
2022-08-17T21:15:48.538Z,18.33
2022-08-17T21:18:34.033Z,16.75
2022-08-17T21:21:17.803Z,18.73
2022-08-17T21:24:09.528Z,18.85
2022-08-17T21:27:12.395Z,19.52
2022-08-17T21:30:10.291Z,17.90
2022-08-17T21:32:41.795Z,20.20
2022-08-17T21:35:11.429Z,16.20
2022-08-17T21:37:42.117Z,16.63
2022-08-17T21:40:18.005Z,15.23
2022-08-17T21:42:48.897Z,17.83
2022-08-17T21:45:24.416Z,15.18
2022-08-17T21:48:09.005Z,17.42
2022-08-17T21:50:36.200Z,15.57
2022-08-17T21:53:06.355Z,16.13
2022-08-17T21:55:36.185Z,16.27
2022-08-17T21:58:14.178Z,14.18
2022-08-17T22:00:42.467Z,12.38
2022-08-17T22:03:24.067Z,12.32
2022-08-17T22:05:51.563Z,14.30
2022-08-17T22:08:21.999Z,12.20
2022-08-17T22:10:51.292Z,12.27
2022-08-17T22:13:17.938Z,12.65
2022-08-17T22:15:48.013Z,11.35
2022-08-17T22:18:21.427Z,11.43
2022-08-17T22:20:53.735Z,13.77
2022-08-17T22:23:51.680Z,17.88
2022-08-17T22:26:21.671Z,11.70
2022-08-17T22:28:54.300Z,12.57
2022-08-17T22:31:24.190Z,12.52
2022-08-17T22:34:12.291Z,11.65
2022-08-17T22:36:41.807Z,11.52
2022-08-17T22:39:11.155Z,11.00
2022-08-17T22:41:41.228Z,13.20
2022-08-17T22:44:20.800Z,9.27
2022-08-17T22:46:56.217Z,10.90
2022-08-17T22:49:29.115Z,9.98
2022-08-17T22:52:03.722Z,10.45
2022-08-17T22:54:49.775Z,9.98
2022-08-17T22:57:36.288Z,10.65
2022-08-17T23:00:04.872Z,10.10
2022-08-17T23:02:34.931Z,10.30
2022-08-17T23:05:13.125Z,10.23
2022-08-17T23:07:40.637Z,10.27
2022-08-17T23:10:09.612Z,10.25
2022-08-17T23:12:39.869Z,9.77
2022-08-17T23:15:14.349Z,9.77
2022-08-17T23:17:41.993Z,13.20
2022-08-17T23:20:14.280Z,17.80
2022-08-17T23:22:51.203Z,10.15
2022-08-17T23:25:29.564Z,9.90
2022-08-17T23:27:58.509Z,9.63
2022-08-17T23:30:25.734Z,11.07
2022-08-17T23:32:54.309Z,10.05
2022-08-17T23:35:40.335Z,11.23
2022-08-17T23:38:09.027Z,9.82
2022-08-17T23:40:35.858Z,10.73
2022-08-17T23:43:17.622Z,9.50
2022-08-17T23:45:54.806Z,8.77
2022-08-17T23:48:27.832Z,9.48
2022-08-17T23:51:09.148Z,9.40
2022-08-17T23:53:37.615Z,9.10
2022-08-17T23:56:09.278Z,11.10
2022-08-17T23:58:38.972Z,10.60
